Moody, Texas
Current Conditions -  °F | °C
As of 10:35 PM on Saturday 22 Nov 2014 (Local Time) from KTPL Reporting Station
Overcast Overcast  
Wind Chill: 57°   Ceiling: 2500
Heat Index: 57°   Visibility: 10mi
Dew Point: 54°   Wind: 9mph
Humidity: 88%   Direction: 340°NNW
Pressure: 29.79"   Gusts: NA
Location:  31.31°N, 97.36°W
Report Text: KTPL 230435Z AUTO 34008KT 10SM BKN025 BKN033 OVC049 14/12 A2979 RMK AO1 LTG DSNT E TSB18E33 P0009
Loading
Personal Weather Stations






























Interactive Weather Map New forecast layout! Learn more

10-Day Weather Forecast

Advertisements
Track Severe Weather on mobile